createdAt,value
2022-09-24T00:01:38.456Z,20.80
2022-09-24T00:04:07.308Z,20.80
2022-09-24T00:06:36.605Z,20.80
2022-09-24T00:09:03.952Z,20.80
2022-09-24T00:11:32.108Z,20.80
2022-09-24T00:13:59.402Z,20.80
2022-09-24T00:16:27.515Z,20.80
2022-09-24T00:18:54.669Z,20.80
2022-09-24T00:21:25.733Z,20.70
2022-09-24T00:23:56.868Z,20.80
2022-09-24T00:26:43.191Z,20.70
2022-09-24T00:29:12.054Z,20.70
2022-09-24T00:31:39.246Z,20.70
2022-09-24T00:34:06.372Z,20.70
2022-09-24T00:36:33.506Z,20.70
2022-09-24T00:39:00.801Z,20.70
2022-09-24T00:41:29.491Z,20.70
2022-09-24T00:43:56.522Z,20.70
2022-09-24T00:46:27.706Z,20.70
2022-09-24T00:49:14.695Z,20.70
2022-09-24T00:51:43.390Z,20.70
2022-09-24T00:54:12.939Z,20.60
2022-09-24T00:56:41.598Z,20.60
2022-09-24T00:59:11.460Z,20.70
2022-09-24T01:01:39.206Z,20.60
2022-09-24T01:04:07.064Z,20.60
2022-09-24T01:06:34.198Z,20.60
2022-09-24T01:09:01.387Z,20.60
2022-09-24T01:11:47.359Z,20.60
2022-09-24T01:14:14.348Z,20.60
2022-09-24T01:16:41.644Z,20.60
2022-09-24T01:19:14.546Z,20.60
2022-09-24T01:21:45.662Z,20.60
2022-09-24T01:24:12.687Z,20.60
2022-09-24T01:26:45.520Z,20.60
2022-09-24T01:29:28.235Z,20.60
2022-09-24T01:32:07.299Z,20.60
2022-09-24T01:34:49.253Z,20.60
2022-09-24T01:37:18.413Z,20.60
2022-09-24T01:39:46.843Z,20.60
2022-09-24T01:42:14.454Z,20.60
2022-09-24T01:44:44.218Z,20.60
2022-09-24T01:47:16.270Z,20.60
2022-09-24T01:49:44.203Z,20.50
2022-09-24T01:52:14.472Z,20.50
2022-09-24T01:54:42.509Z,20.50
2022-09-24T01:57:13.230Z,20.50
2022-09-24T01:59:47.066Z,20.50
2022-09-24T02:02:22.914Z,20.50
2022-09-24T02:04:53.318Z,20.50
2022-09-24T02:07:24.605Z,20.50
2022-09-24T02:09:51.712Z,20.50
2022-09-24T02:12:22.136Z,20.50
2022-09-24T02:14:51.607Z,20.50
2022-09-24T02:17:18.933Z,20.50
2022-09-24T02:19:46.479Z,20.50
2022-09-24T02:22:14.256Z,20.50
2022-09-24T02:24:52.459Z,20.50
2022-09-24T02:27:19.644Z,20.50
2022-09-24T02:29:46.725Z,20.50
2022-09-24T02:32:15.227Z,20.40
2022-09-24T02:34:47.110Z,20.50
2022-09-24T02:37:15.250Z,20.40
2022-09-24T02:39:42.571Z,20.40
2022-09-24T02:42:10.980Z,20.40
2022-09-24T02:44:38.489Z,20.40
2022-09-24T02:47:06.596Z,20.40
2022-09-24T02:49:33.623Z,20.40
2022-09-24T02:52:00.898Z,20.40
2022-09-24T02:54:27.976Z,20.40
2022-09-24T02:56:55.138Z,20.40
2022-09-24T02:59:22.553Z,20.40
2022-09-24T03:01:50.285Z,20.40
2022-09-24T03:04:17.612Z,20.40
2022-09-24T03:06:44.668Z,20.30
2022-09-24T03:09:12.863Z,20.40
2022-09-24T03:11:40.198Z,20.40
2022-09-24T03:14:07.612Z,20.30
2022-09-24T03:16:34.770Z,20.30
2022-09-24T03:19:01.877Z,20.30
2022-09-24T03:21:28.998Z,20.30
2022-09-24T03:23:56.222Z,20.30
2022-09-24T03:26:23.520Z,20.30
2022-09-24T03:28:50.624Z,20.30
2022-09-24T03:31:17.871Z,20.30
2022-09-24T03:33:46.153Z,20.30
2022-09-24T03:36:13.325Z,20.30
2022-09-24T03:38:40.964Z,20.30
2022-09-24T03:41:08.375Z,20.30
2022-09-24T03:43:35.549Z,20.30
2022-09-24T03:46:03.274Z,20.30
2022-09-24T03:48:30.312Z,20.30
2022-09-24T03:50:57.465Z,20.30
2022-09-24T03:53:24.538Z,20.30
2022-09-24T03:55:55.879Z,20.30
2022-09-24T03:58:23.055Z,20.60
2022-09-24T04:00:54.046Z,20.90
2022-09-24T04:03:22.036Z,21.20
2022-09-24T04:05:51.153Z,21.40
2022-09-24T04:08:19.175Z,21.60
2022-09-24T04:10:46.668Z,21.80
2022-09-24T04:13:13.756Z,21.80
2022-09-24T04:15:40.900Z,22.00
2022-09-24T04:18:08.340Z,22.10
2022-09-24T04:20:35.850Z,22.20
2022-09-24T04:23:03.297Z,22.30
2022-09-24T04:25:31.226Z,22.30
2022-09-24T04:28:00.098Z,22.40
2022-09-24T04:30:27.925Z,22.50
2022-09-24T04:32:55.009Z,22.50
2022-09-24T04:35:22.919Z,22.60
2022-09-24T04:37:50.338Z,22.60
2022-09-24T04:40:18.046Z,22.70
2022-09-24T04:42:46.300Z,22.70
2022-09-24T04:45:15.109Z,22.70
2022-09-24T04:47:42.198Z,22.70
2022-09-24T04:50:11.296Z,22.80
2022-09-24T04:52:39.055Z,22.80
2022-09-24T04:55:06.437Z,22.90
2022-09-24T04:57:35.008Z,22.90
2022-09-24T05:00:04.041Z,22.90
2022-09-24T05:02:31.405Z,22.80
2022-09-24T05:04:58.695Z,22.80
2022-09-24T05:07:25.708Z,22.70
2022-09-24T05:09:52.735Z,22.70
2022-09-24T05:12:21.149Z,22.70
2022-09-24T05:14:48.699Z,22.60
2022-09-24T05:17:15.821Z,22.60
2022-09-24T05:19:42.966Z,22.60
2022-09-24T05:22:09.983Z,22.50
2022-09-24T05:24:36.995Z,22.50
2022-09-24T05:27:09.984Z,22.50
2022-09-24T05:29:40.766Z,22.40
2022-09-24T05:32:09.188Z,22.40
2022-09-24T05:34:36.283Z,22.40
2022-09-24T05:37:03.836Z,22.30
2022-09-24T05:39:33.921Z,22.30
2022-09-24T05:42:04.287Z,22.30
2022-09-24T05:44:31.505Z,22.20
2022-09-24T05:46:58.685Z,22.20
2022-09-24T05:49:26.267Z,22.20
2022-09-24T05:51:53.347Z,22.20
2022-09-24T05:54:20.404Z,22.10
2022-09-24T05:56:47.405Z,22.10
2022-09-24T05:59:14.588Z,22.00
2022-09-24T06:01:41.704Z,22.00
2022-09-24T06:04:10.937Z,22.00
2022-09-24T06:06:37.960Z,22.00
2022-09-24T06:09:05.606Z,22.00
2022-09-24T06:11:39.955Z,22.10
2022-09-24T06:14:08.602Z,22.00
2022-09-24T06:16:36.110Z,22.00
2022-09-24T06:19:03.411Z,22.00
2022-09-24T06:21:30.506Z,22.00
2022-09-24T06:23:57.650Z,21.90
2022-09-24T06:26:26.255Z,21.90
2022-09-24T06:28:53.281Z,21.90
2022-09-24T06:31:20.591Z,21.90
2022-09-24T06:33:47.915Z,21.80
2022-09-24T06:36:15.200Z,21.80
2022-09-24T06:38:42.313Z,21.80
2022-09-24T06:41:10.051Z,21.80
2022-09-24T06:43:37.443Z,21.80
2022-09-24T06:46:04.819Z,21.80
2022-09-24T06:48:31.990Z,21.70
2022-09-24T06:50:59.060Z,21.70
2022-09-24T06:53:26.596Z,21.70
2022-09-24T06:55:56.917Z,21.70
2022-09-24T06:58:24.427Z,21.70
2022-09-24T07:00:53.097Z,21.60
2022-09-24T07:03:20.521Z,21.30
2022-09-24T07:05:47.580Z,20.60
2022-09-24T07:08:14.614Z,20.40
2022-09-24T07:10:42.580Z,20.60
2022-09-24T07:13:09.734Z,20.90
2022-09-24T07:15:36.880Z,21.20
2022-09-24T07:18:04.039Z,21.40
2022-09-24T07:20:31.101Z,21.40
2022-09-24T07:22:58.183Z,21.50
2022-09-24T07:25:25.328Z,21.50
2022-09-24T07:27:52.434Z,21.50
2022-09-24T07:30:19.595Z,21.50
2022-09-24T07:32:46.731Z,21.40
2022-09-24T07:35:13.746Z,21.50
2022-09-24T07:37:40.837Z,21.50
2022-09-24T07:40:08.121Z,21.50
2022-09-24T07:42:35.238Z,21.50
2022-09-24T07:45:02.301Z,21.50
2022-09-24T07:47:29.383Z,21.40
2022-09-24T07:49:56.462Z,21.40
2022-09-24T07:52:23.491Z,21.30
2022-09-24T07:54:52.211Z,21.20
2022-09-24T07:57:19.377Z,21.20
2022-09-24T07:59:46.466Z,21.10
2022-09-24T08:02:17.133Z,21.10
2022-09-24T08:04:44.491Z,21.10
2022-09-24T08:07:14.643Z,21.10
2022-09-24T08:09:41.788Z,21.20
2022-09-24T08:12:09.542Z,21.10
2022-09-24T08:14:36.638Z,21.20
2022-09-24T08:17:03.722Z,21.10
2022-09-24T08:19:33.120Z,21.20
2022-09-24T08:22:00.283Z,21.20
2022-09-24T08:24:27.317Z,21.10
2022-09-24T08:26:54.380Z,21.10
2022-09-24T08:29:21.368Z,21.10
2022-09-24T08:31:49.102Z,21.10
2022-09-24T08:34:16.244Z,21.20
2022-09-24T08:36:43.520Z,21.20
2022-09-24T08:39:12.506Z,21.10
2022-09-24T08:41:48.998Z,21.10
2022-09-24T08:44:35.991Z,21.20
2022-09-24T08:47:22.725Z,21.20
2022-09-24T08:50:02.206Z,21.20
2022-09-24T08:52:29.235Z,21.20
2022-09-24T08:54:58.502Z,21.20
2022-09-24T08:57:26.140Z,21.20
2022-09-24T08:59:53.364Z,21.20
2022-09-24T09:02:39.266Z,21.20
2022-09-24T09:05:15.509Z,21.30
2022-09-24T09:07:45.441Z,21.20
2022-09-24T09:10:12.475Z,21.30
2022-09-24T09:12:41.410Z,21.30
2022-09-24T09:15:17.770Z,21.30
2022-09-24T09:17:48.050Z,21.30
2022-09-24T09:20:21.358Z,21.30
2022-09-24T09:22:49.609Z,21.30
2022-09-24T09:25:24.673Z,21.30
2022-09-24T09:27:55.687Z,21.30
2022-09-24T09:30:23.080Z,21.30
2022-09-24T09:33:10.394Z,21.30
2022-09-24T09:35:40.489Z,21.30
2022-09-24T09:38:07.578Z,21.30
2022-09-24T09:40:34.694Z,21.30
2022-09-24T09:43:05.545Z,21.30
2022-09-24T09:45:46.519Z,21.30
2022-09-24T09:48:16.402Z,21.30
2022-09-24T09:50:55.446Z,21.30
2022-09-24T09:53:23.680Z,21.30
2022-09-24T09:56:01.313Z,21.30
2022-09-24T09:58:29.447Z,21.30
2022-09-24T10:01:04.689Z,21.30
2022-09-24T10:03:33.548Z,21.20
2022-09-24T10:06:01.723Z,21.20
2022-09-24T10:08:29.234Z,21.20
2022-09-24T10:10:57.585Z,21.20
2022-09-24T10:13:25.090Z,21.20
2022-09-24T10:15:52.176Z,21.20
2022-09-24T10:18:38.495Z,21.20
2022-09-24T10:21:09.077Z,21.20
2022-09-24T10:23:37.659Z,21.20
2022-09-24T10:26:05.211Z,21.20
2022-09-24T10:28:52.418Z,21.20
2022-09-24T10:31:24.071Z,21.20
2022-09-24T10:33:53.995Z,21.20
2022-09-24T10:36:22.293Z,21.20
2022-09-24T10:38:49.656Z,21.20
2022-09-24T10:41:25.928Z,21.10
2022-09-24T10:43:53.572Z,21.10
2022-09-24T10:46:34.808Z,21.10
2022-09-24T10:49:07.538Z,21.10
2022-09-24T10:52:10.292Z,21.10
2022-09-24T10:54:37.281Z,21.10
2022-09-24T10:57:12.027Z,21.10
2022-09-24T11:00:02.063Z,21.10
2022-09-24T11:02:59.741Z,21.10
2022-09-24T11:05:39.337Z,21.10
2022-09-24T11:08:18.537Z,21.10
2022-09-24T11:10:51.804Z,21.10
2022-09-24T11:13:19.568Z,21.10
2022-09-24T11:16:09.777Z,21.10
2022-09-24T11:18:46.784Z,21.10
2022-09-24T11:21:16.831Z,21.10
2022-09-24T11:24:09.306Z,21.10
2022-09-24T11:26:51.753Z,21.10
2022-09-24T11:29:41.738Z,21.10
2022-09-24T11:32:41.258Z,21.10
2022-09-24T11:35:27.003Z,21.10
2022-09-24T11:38:03.281Z,21.10
2022-09-24T11:40:42.465Z,21.10
2022-09-24T11:43:12.352Z,21.10
2022-09-24T11:45:42.536Z,21.10
2022-09-24T11:48:16.839Z,21.10
2022-09-24T11:50:48.070Z,21.10
2022-09-24T11:53:38.306Z,21.10
2022-09-24T11:56:13.212Z,21.10
2022-09-24T11:59:03.770Z,21.10
2022-09-24T12:01:35.965Z,21.10
2022-09-24T12:04:10.368Z,21.10
2022-09-24T12:06:41.648Z,21.10
2022-09-24T12:09:08.818Z,21.10
2022-09-24T12:11:39.186Z,21.10
2022-09-24T12:14:12.877Z,21.10
2022-09-24T12:16:41.206Z,21.10
2022-09-24T12:19:12.493Z,21.10
2022-09-24T12:21:41.401Z,21.10
2022-09-24T12:24:22.588Z,21.10
2022-09-24T12:26:50.085Z,21.10
2022-09-24T12:29:44.829Z,21.10
2022-09-24T12:32:39.462Z,21.10
2022-09-24T12:35:25.166Z,21.10
2022-09-24T12:37:56.187Z,21.10
2022-09-24T12:40:35.379Z,21.10
2022-09-24T12:43:05.667Z,21.10
2022-09-24T12:45:34.108Z,21.10
2022-09-24T12:48:01.857Z,21.10
2022-09-24T12:50:30.868Z,21.10
2022-09-24T12:52:58.199Z,21.10
2022-09-24T12:55:26.642Z,21.10
2022-09-24T12:58:07.720Z,21.10
2022-09-24T13:00:39.888Z,21.10
2022-09-24T13:03:07.951Z,21.10
2022-09-24T13:05:35.163Z,21.10
2022-09-24T13:08:04.045Z,21.10
2022-09-24T13:10:32.219Z,21.10
2022-09-24T13:13:00.258Z,21.10
2022-09-24T13:15:28.738Z,21.10
2022-09-24T13:18:05.032Z,21.10
2022-09-24T13:20:33.003Z,21.10
2022-09-24T13:23:12.233Z,21.10
2022-09-24T13:25:39.290Z,21.10
2022-09-24T13:28:29.224Z,21.10
2022-09-24T13:31:17.734Z,21.10
2022-09-24T13:33:48.060Z,21.20
2022-09-24T13:36:15.603Z,21.10
2022-09-24T13:39:01.206Z,21.10
2022-09-24T13:41:37.328Z,21.10
2022-09-24T13:44:08.027Z,21.10
2022-09-24T13:46:36.441Z,21.10
2022-09-24T13:49:08.797Z,21.10
2022-09-24T13:51:37.465Z,21.10
2022-09-24T13:54:14.526Z,21.10
2022-09-24T13:56:42.129Z,21.00
2022-09-24T13:59:10.865Z,21.10
2022-09-24T14:01:46.902Z,21.10
2022-09-24T14:04:16.312Z,21.00
2022-09-24T14:06:45.390Z,21.00
2022-09-24T14:09:32.388Z,21.00
2022-09-24T14:12:01.004Z,21.00
2022-09-24T14:14:29.151Z,21.00
2022-09-24T14:17:06.551Z,21.00
2022-09-24T14:19:34.792Z,21.00
2022-09-24T14:22:02.584Z,21.00
2022-09-24T14:24:29.804Z,21.00
2022-09-24T14:27:01.085Z,21.00
2022-09-24T14:29:49.629Z,21.00
2022-09-24T14:32:24.786Z,21.00
2022-09-24T14:34:53.165Z,21.00
2022-09-24T14:37:22.659Z,21.00
2022-09-24T14:39:50.393Z,21.00
2022-09-24T14:42:21.147Z,21.00
2022-09-24T14:44:48.718Z,21.00
2022-09-24T14:47:29.700Z,21.00
2022-09-24T14:49:56.935Z,21.00
2022-09-24T14:52:32.395Z,21.00
2022-09-24T14:55:10.954Z,21.00
2022-09-24T14:57:38.334Z,21.00
2022-09-24T15:00:24.045Z,21.00
2022-09-24T15:02:54.828Z,21.00
2022-09-24T15:05:26.364Z,21.00
2022-09-24T15:08:06.877Z,21.00
2022-09-24T15:10:34.133Z,21.00
2022-09-24T15:13:11.828Z,21.00
2022-09-24T15:15:39.958Z,21.00
2022-09-24T15:18:10.912Z,21.00
2022-09-24T15:20:38.336Z,21.00
2022-09-24T15:23:05.545Z,21.00
2022-09-24T15:25:32.606Z,21.00
2022-09-24T15:27:59.691Z,21.00
2022-09-24T15:30:26.690Z,21.00
2022-09-24T15:32:53.796Z,21.00
2022-09-24T15:35:21.195Z,21.00
2022-09-24T15:37:49.399Z,21.00
2022-09-24T15:40:23.826Z,21.00
2022-09-24T15:42:51.384Z,21.00
2022-09-24T15:45:22.600Z,20.90
2022-09-24T15:47:50.161Z,21.00
2022-09-24T15:50:17.721Z,21.00
2022-09-24T15:52:48.566Z,21.00
2022-09-24T15:55:17.987Z,21.00
2022-09-24T15:57:46.211Z,21.00
2022-09-24T16:00:17.500Z,21.00
2022-09-24T16:02:49.563Z,21.00
2022-09-24T16:05:16.956Z,21.00
2022-09-24T16:07:44.103Z,21.00
2022-09-24T16:10:12.072Z,20.90
2022-09-24T16:12:39.632Z,20.90
2022-09-24T16:15:06.963Z,21.00
2022-09-24T16:17:34.121Z,21.00
2022-09-24T16:20:01.387Z,21.00
2022-09-24T16:22:28.482Z,21.00
2022-09-24T16:24:55.583Z,21.00
2022-09-24T16:27:22.830Z,21.00
2022-09-24T16:29:49.856Z,21.00
2022-09-24T16:32:16.992Z,21.00
2022-09-24T16:34:44.089Z,20.90
2022-09-24T16:37:11.312Z,21.00
2022-09-24T16:39:38.550Z,21.00
2022-09-24T16:42:05.658Z,20.90
2022-09-24T16:44:32.708Z,20.90
2022-09-24T16:46:59.920Z,21.00
2022-09-24T16:49:27.230Z,20.90
2022-09-24T16:51:54.331Z,21.00
2022-09-24T16:54:22.952Z,20.90
2022-09-24T16:56:50.455Z,20.90
2022-09-24T16:59:18.103Z,20.90
2022-09-24T17:01:45.395Z,20.90
2022-09-24T17:04:12.574Z,20.90
2022-09-24T17:06:40.226Z,20.90
2022-09-24T17:09:26.001Z,20.90
2022-09-24T17:11:53.047Z,21.00
2022-09-24T17:14:20.275Z,20.90
2022-09-24T17:16:47.394Z,20.90
2022-09-24T17:19:15.265Z,20.90
2022-09-24T17:21:43.353Z,20.90
2022-09-24T17:24:10.404Z,20.90
2022-09-24T17:26:37.892Z,20.90
2022-09-24T17:29:05.307Z,20.90
2022-09-24T17:31:32.442Z,21.00
2022-09-24T17:34:01.267Z,20.90
2022-09-24T17:36:29.015Z,21.00
2022-09-24T17:38:57.545Z,21.00
2022-09-24T17:41:25.168Z,21.00
2022-09-24T17:43:52.483Z,21.00
2022-09-24T17:46:22.243Z,21.10
2022-09-24T17:48:52.084Z,21.00
2022-09-24T17:51:27.028Z,21.10
2022-09-24T17:53:55.155Z,21.10
2022-09-24T17:56:23.553Z,21.10
2022-09-24T17:58:52.318Z,21.10
2022-09-24T18:01:20.616Z,21.10
2022-09-24T18:03:52.041Z,21.10
2022-09-24T18:06:19.059Z,21.10
2022-09-24T18:08:46.201Z,21.20
2022-09-24T18:11:15.191Z,21.20
2022-09-24T18:13:42.208Z,21.20
2022-09-24T18:16:09.378Z,21.20
2022-09-24T18:18:36.519Z,21.20
2022-09-24T18:21:04.979Z,21.20
2022-09-24T18:23:32.417Z,21.20
2022-09-24T18:26:11.843Z,21.20
2022-09-24T18:28:42.881Z,21.20
2022-09-24T18:31:10.298Z,21.20
2022-09-24T18:33:38.831Z,21.10
2022-09-24T18:36:10.326Z,21.10
2022-09-24T18:38:37.396Z,21.10
2022-09-24T18:41:09.279Z,21.10
2022-09-24T18:43:36.833Z,21.10
2022-09-24T18:46:12.793Z,21.10
2022-09-24T18:48:40.670Z,21.10
2022-09-24T18:51:12.551Z,21.20
2022-09-24T18:53:39.600Z,21.20
2022-09-24T18:56:07.574Z,21.10
2022-09-24T18:58:34.961Z,21.10
2022-09-24T19:01:03.148Z,21.10
2022-09-24T19:03:30.629Z,21.10
2022-09-24T19:06:01.931Z,21.10
2022-09-24T19:08:32.036Z,21.20
2022-09-24T19:11:04.726Z,21.10
2022-09-24T19:13:31.898Z,21.10
2022-09-24T19:16:02.524Z,21.10
2022-09-24T19:18:29.655Z,21.10
2022-09-24T19:20:57.290Z,21.10
2022-09-24T19:23:24.312Z,21.10
2022-09-24T19:25:51.693Z,21.10
2022-09-24T19:28:18.740Z,21.10
2022-09-24T19:30:46.729Z,21.10
2022-09-24T19:33:15.819Z,21.10
2022-09-24T19:35:51.890Z,21.10
2022-09-24T19:38:18.945Z,21.10
2022-09-24T19:40:55.339Z,21.10
2022-09-24T19:43:22.525Z,21.10
2022-09-24T19:45:59.796Z,21.10
2022-09-24T19:48:27.444Z,21.10
2022-09-24T19:50:54.989Z,21.00
2022-09-24T19:53:22.111Z,21.10
2022-09-24T19:55:49.153Z,21.10
2022-09-24T19:58:16.326Z,21.10
2022-09-24T20:00:43.373Z,21.10
2022-09-24T20:03:11.235Z,21.10
2022-09-24T20:05:39.268Z,21.10
2022-09-24T20:08:06.287Z,21.10
2022-09-24T20:10:35.538Z,21.10
2022-09-24T20:13:02.609Z,21.10
2022-09-24T20:15:29.827Z,21.00
2022-09-24T20:17:57.084Z,21.00
2022-09-24T20:20:24.105Z,21.00
2022-09-24T20:22:51.117Z,21.00
2022-09-24T20:25:18.202Z,21.00
2022-09-24T20:27:51.317Z,21.00
2022-09-24T20:30:23.864Z,21.00
2022-09-24T20:32:51.050Z,21.00
2022-09-24T20:35:18.125Z,20.90
2022-09-24T20:37:47.515Z,20.90
2022-09-24T20:40:14.613Z,20.90
2022-09-24T20:42:41.736Z,20.90
2022-09-24T20:45:09.018Z,20.90
2022-09-24T20:47:38.944Z,20.90
2022-09-24T20:50:06.341Z,20.90
2022-09-24T20:52:33.639Z,20.90
2022-09-24T20:55:00.790Z,20.90
2022-09-24T20:57:28.314Z,20.90
2022-09-24T20:59:56.167Z,20.90
2022-09-24T21:02:23.651Z,20.90
2022-09-24T21:04:51.460Z,20.90
2022-09-24T21:07:18.511Z,20.90
2022-09-24T21:09:45.589Z,20.90
2022-09-24T21:12:12.756Z,20.90
2022-09-24T21:14:39.788Z,20.90
2022-09-24T21:17:10.087Z,20.90
2022-09-24T21:19:37.101Z,20.90
2022-09-24T21:22:06.059Z,20.80
2022-09-24T21:24:33.104Z,20.90
2022-09-24T21:27:00.307Z,20.90
2022-09-24T21:29:27.407Z,20.80
2022-09-24T21:31:54.497Z,20.90
2022-09-24T21:34:21.604Z,20.90
2022-09-24T21:36:48.726Z,20.80
2022-09-24T21:39:17.086Z,20.80
2022-09-24T21:41:44.893Z,20.80
2022-09-24T21:44:13.160Z,20.80
2022-09-24T21:46:42.665Z,20.90
2022-09-24T21:49:10.906Z,20.80
2022-09-24T21:51:38.517Z,20.80
2022-09-24T21:54:07.289Z,20.80
2022-09-24T21:56:35.089Z,20.80
2022-09-24T21:59:22.778Z,20.80
2022-09-24T22:01:50.150Z,20.80
2022-09-24T22:04:17.396Z,20.80
2022-09-24T22:06:44.442Z,20.80
2022-09-24T22:09:11.457Z,20.80
2022-09-24T22:11:38.706Z,20.80
2022-09-24T22:14:05.886Z,20.80
2022-09-24T22:16:34.801Z,20.80
2022-09-24T22:19:03.606Z,20.80
2022-09-24T22:21:31.305Z,20.80
2022-09-24T22:23:58.586Z,20.80
2022-09-24T22:26:29.777Z,20.80
2022-09-24T22:28:56.816Z,20.80
2022-09-24T22:31:24.333Z,20.80
2022-09-24T22:34:10.255Z,20.80
2022-09-24T22:36:37.446Z,20.70
2022-09-24T22:39:05.193Z,20.80
2022-09-24T22:41:34.731Z,20.70
2022-09-24T22:44:01.869Z,20.70
2022-09-24T22:46:31.563Z,20.70
2022-09-24T22:48:58.883Z,20.70
2022-09-24T22:51:29.352Z,20.70
2022-09-24T22:53:56.919Z,20.70
2022-09-24T22:56:24.915Z,20.70
2022-09-24T22:58:53.987Z,20.70
2022-09-24T23:01:22.646Z,20.70
2022-09-24T23:03:50.532Z,20.70
2022-09-24T23:06:18.086Z,20.70
2022-09-24T23:08:45.155Z,20.70
2022-09-24T23:11:16.450Z,20.70
2022-09-24T23:13:44.525Z,20.70
2022-09-24T23:16:18.298Z,20.70
2022-09-24T23:18:46.609Z,20.60
2022-09-24T23:21:17.135Z,20.70
2022-09-24T23:23:44.356Z,20.70
2022-09-24T23:26:16.530Z,20.70
2022-09-24T23:28:44.670Z,20.70
2022-09-24T23:31:13.002Z,20.70
2022-09-24T23:33:40.854Z,20.70
2022-09-24T23:36:09.199Z,20.60
2022-09-24T23:38:36.524Z,20.60
2022-09-24T23:41:05.102Z,20.60
2022-09-24T23:43:32.670Z,20.60
2022-09-24T23:46:00.224Z,20.60
2022-09-24T23:48:28.335Z,20.60
2022-09-24T23:50:55.400Z,20.60
2022-09-24T23:53:22.574Z,20.60
2022-09-24T23:55:50.010Z,20.60
2022-09-24T23:58:18.290Z,20.60
